Time;durP1;ratioP1;P1;durP2;ratioP2;P2;SDS_P1;SDS_P2;PMS_P1;PMS_P2;Temp;Humidity;BMP_temperature;BMP_pressure;BME280_temperature;BME280_humidity;BME280_pressure;Samples;Min_cycle;Max_cycle;Signal;HPM_P1;HPM_P2
2024/01/27 00:02:28;;;;;;;;;;;;;;;10.16;79.59;98955.48;67602;1282;1016446;-72
2024/01/27 00:05:30;;;;;;;;;;;;;;;10.02;80.05;98967.05;67538;1282;1016901;-73
2024/01/27 00:08:33;;;;;;;;;;;;;;;10.05;78.81;98968.52;67527;1282;1016321;-72
2024/01/27 00:11:35;;;;;;;;;;;;;;;9.99;78.93;98979.30;67545;1282;1016507;-72
2024/01/27 00:14:38;;;;;;;;;;;;;;;9.89;79.35;98993.68;67582;1282;1016452;-71
2024/01/27 00:17:40;;;;;;;;;;;;;;;9.90;80.29;98994.83;67553;1282;1016253;-72
2024/01/27 00:20:43;;;;;;;;;;;;;;;9.86;80.35;99000.64;67506;1282;1016415;-72
2024/01/27 00:23:45;;;;;;;;;;;;;;;9.71;81.56;99027.15;67533;1282;1018738;-72
2024/01/27 00:26:48;;;;;;;;;;;;;;;9.78;81.15;99026.23;67555;1282;1016388;-71
2024/01/27 00:29:50;;;;;;;;;;;;;;;9.86;81.26;99021.05;67588;1282;1016425;-72
2024/01/27 00:32:53;;;;;;;;;;;;;;;9.89;81.77;99038.70;67531;1282;1016765;-71
2024/01/27 00:35:55;;;;;;;;;;;;;;;9.90;81.48;99047.57;67532;1282;1016346;-72
2024/01/27 00:38:58;;;;;;;;;;;;;;;9.77;79.15;99057.02;67584;1282;1016733;-72
2024/01/27 00:42:00;;;;;;;;;;;;;;;9.28;79.14;99066.04;67598;1282;1019092;-72
2024/01/27 00:45:03;;;;;;;;;;;;;;;9.27;81.02;99070.80;67518;1282;1016484;-71
2024/01/27 00:48:05;;;;;;;;;;;;;;;9.25;81.69;99096.37;67551;1282;1016997;-72
2024/01/27 00:51:08;;;;;;;;;;;;;;;9.23;80.20;99086.88;67604;1282;1016010;-73
2024/01/27 00:54:10;;;;;;;;;;;;;;;9.12;81.08;99093.20;67613;1282;1016306;-73
2024/01/27 00:57:12;;;;;;;;;;;;;;;9.13;79.20;99092.09;67555;1282;1016362;-72
2024/01/27 01:00:15;;;;;;;;;;;;;;;9.03;74.04;99128.89;67565;1282;1016422;-73
2024/01/27 01:03:17;;;;;;;;;;;;;;;8.94;72.75;99118.86;67582;1282;1017034;-71
2024/01/27 01:06:20;;;;;;;;;;;;;;;9.01;71.86;99104.04;67570;1282;1016308;-73
2024/01/27 01:09:22;;;;;;;;;;;;;;;8.93;70.80;99132.67;67583;1282;1016450;-73
2024/01/27 01:12:26;;;;;;;;;;;;;;;9.02;71.21;99127.53;67550;1282;1016124;-73
2024/01/27 01:15:28;;;;;;;;;;;;;;;9.23;70.10;99127.23;67598;1282;1015992;-73
2024/01/27 01:18:30;;;;;;;;;;;;;;;9.21;70.87;99120.14;67560;1282;1015882;-73
2024/01/27 01:21:33;;;;;;;;;;;;;;;9.37;70.65;99111.30;67560;1282;1016601;-68
2024/01/27 01:24:35;;;;;;;;;;;;;;;9.49;69.47;99117.00;67536;1282;1016123;-72
2024/01/27 01:27:38;;;;;;;;;;;;;;;9.44;68.66;99116.89;67605;1282;1016440;-72
2024/01/27 01:30:40;;;;;;;;;;;;;;;9.54;68.11;99128.56;67597;1282;1016853;-73
2024/01/27 01:33:43;;;;;;;;;;;;;;;9.72;66.93;99128.02;67568;1282;1016408;-71
2024/01/27 01:36:45;;;;;;;;;;;;;;;9.76;65.32;99130.80;67531;1282;1016433;-72
2024/01/27 01:39:48;;;;;;;;;;;;;;;9.67;64.97;99135.59;67617;1282;1016432;-73
2024/01/27 01:42:50;;;;;;;;;;;;;;;9.65;65.05;99138.70;67592;1282;1019398;-73
2024/01/27 01:45:53;;;;;;;;;;;;;;;9.66;64.26;99141.92;67571;1282;1016346;-71
2024/01/27 01:48:56;;;;;;;;;;;;;;;9.75;63.62;99148.46;67613;1282;1016006;-73
2024/01/27 01:51:58;;;;;;;;;;;;;;;9.76;62.01;99145.26;67592;1282;1016307;-74
2024/01/27 01:55:01;;;;;;;;;;;;;;;9.56;60.99;99152.75;67517;1282;1016162;-73
2024/01/27 01:58:04;;;;;;;;;;;;;;;9.69;60.94;99153.48;67538;1282;1016448;-71
2024/01/27 02:01:07;;;;;;;;;;;;;;;9.66;61.84;99155.20;67591;1282;1016264;-73
2024/01/27 02:04:09;;;;;;;;;;;;;;;9.69;61.37;99146.48;67552;1282;1016415;-73
2024/01/27 02:07:11;;;;;;;;;;;;;;;9.86;61.19;99148.55;67576;1282;1016453;-73
2024/01/27 02:10:14;;;;;;;;;;;;;;;9.76;59.99;99159.20;67551;1282;1016466;-73
2024/01/27 02:13:17;;;;;;;;;;;;;;;9.73;60.25;99155.02;67584;1282;1016364;-73
2024/01/27 02:16:21;;;;;;;;;;;;;;;9.81;60.16;99147.80;67546;1282;1016244;-71
2024/01/27 02:19:24;;;;;;;;;;;;;;;9.78;59.52;99148.83;67577;1282;1016459;-71
2024/01/27 02:22:26;;;;;;;;;;;;;;;9.70;59.42;99159.71;67558;1282;1016350;-70
2024/01/27 02:25:29;;;;;;;;;;;;;;;9.62;58.27;99161.34;67585;1282;1016412;-73
2024/01/27 02:28:32;;;;;;;;;;;;;;;9.74;58.80;99165.65;67606;1282;1016191;-73
2024/01/27 02:31:34;;;;;;;;;;;;;;;9.61;57.16;99177.98;67551;1282;1016154;-70
2024/01/27 02:34:37;;;;;;;;;;;;;;;9.67;56.88;99186.58;67539;1282;1016416;-73
2024/01/27 02:37:39;;;;;;;;;;;;;;;9.63;56.80;99196.73;67573;1282;1016343;-73
2024/01/27 02:40:41;;;;;;;;;;;;;;;9.63;57.26;99190.81;67605;1282;1016253;-73
2024/01/27 02:43:44;;;;;;;;;;;;;;;9.63;57.81;99188.84;67548;1282;1016841;-72
2024/01/27 02:46:46;;;;;;;;;;;;;;;9.52;57.78;99196.77;67555;1282;1016468;-71
2024/01/27 02:49:49;;;;;;;;;;;;;;;9.66;57.78;99191.88;67575;1282;1016699;-73
2024/01/27 02:52:51;;;;;;;;;;;;;;;9.60;55.59;99212.61;67605;1282;1016908;-73
2024/01/27 02:55:54;;;;;;;;;;;;;;;9.62;55.86;99208.30;67552;1282;1016363;-73
2024/01/27 02:58:56;;;;;;;;;;;;;;;9.66;55.40;99207.91;67557;1282;1016436;-72
2024/01/27 03:01:59;;;;;;;;;;;;;;;9.55;55.86;99202.73;67551;1282;1016469;-73
2024/01/27 03:05:01;;;;;;;;;;;;;;;9.64;55.19;99198.27;67572;1282;1016354;-73
2024/01/27 03:08:04;;;;;;;;;;;;;;;9.67;55.26;99198.33;67582;1282;1016247;-73
2024/01/27 03:11:06;;;;;;;;;;;;;;;9.61;55.21;99200.88;67551;1282;1016150;-73
2024/01/27 03:14:10;;;;;;;;;;;;;;;9.65;55.25;99189.66;67543;1282;1016220;-70
2024/01/27 03:17:12;;;;;;;;;;;;;;;9.75;55.39;99201.37;67558;1282;1016392;-73
2024/01/27 03:20:15;;;;;;;;;;;;;;;9.76;55.02;99204.45;67593;1282;1016413;-70
2024/01/27 03:23:17;;;;;;;;;;;;;;;9.70;54.74;99207.58;67596;1282;1016013;-72
2024/01/27 03:26:20;;;;;;;;;;;;;;;9.81;55.12;99209.27;67538;1282;1016501;-73
2024/01/27 03:29:22;;;;;;;;;;;;;;;9.89;54.65;99216.20;67563;1282;1017265;-70
2024/01/27 03:32:25;;;;;;;;;;;;;;;9.73;54.65;99226.81;67551;1282;1016440;-70
2024/01/27 03:35:28;;;;;;;;;;;;;;;9.79;55.04;99228.45;67567;1282;1016372;-73
2024/01/27 03:38:30;;;;;;;;;;;;;;;9.80;54.72;99228.17;65069;1281;6381269;-73
2024/01/27 03:41:33;;;;;;;;;;;;;;;9.82;54.53;99227.41;67579;1282;1016423;-72
2024/01/27 03:44:36;;;;;;;;;;;;;;;9.80;54.90;99232.89;67590;1282;1018335;-73
2024/01/27 03:47:39;;;;;;;;;;;;;;;9.67;54.42;99238.11;67538;1282;1019055;-72
2024/01/27 03:50:49;;;;;;;;;;;;;;;9.65;55.20;99238.55;67540;1282;1016615;-73
2024/01/27 03:53:52;;;;;;;;;;;;;;;9.59;55.80;99252.98;67584;1282;1016611;-72
2024/01/27 03:56:54;;;;;;;;;;;;;;;9.42;55.96;99254.85;67592;1282;1016392;-70
2024/01/27 03:59:57;;;;;;;;;;;;;;;9.48;56.31;99251.64;67589;1282;1016523;-70
2024/01/27 04:02:59;;;;;;;;;;;;;;;9.39;56.57;99244.72;67551;1282;1016217;-62
2024/01/27 04:06:02;;;;;;;;;;;;;;;9.37;55.58;99257.23;67530;1282;1016519;-73
2024/01/27 04:09:08;;;;;;;;;;;;;;;9.34;55.20;99248.98;67551;1282;1018719;-73
2024/01/27 04:12:11;;;;;;;;;;;;;;;9.41;55.07;99248.81;67549;1282;1016490;-73
2024/01/27 04:15:13;;;;;;;;;;;;;;;9.42;54.55;99258.89;67565;1282;1016306;-73
2024/01/27 04:18:16;;;;;;;;;;;;;;;9.41;54.10;99250.19;67537;1282;1018106;-73
2024/01/27 04:21:18;;;;;;;;;;;;;;;9.57;53.90;99247.33;67533;1282;1016846;-72
2024/01/27 04:24:20;;;;;;;;;;;;;;;9.65;53.43;99249.74;67548;1282;1018390;-72
2024/01/27 04:27:23;;;;;;;;;;;;;;;9.67;52.99;99260.59;67596;1282;1016538;-72
2024/01/27 04:30:25;;;;;;;;;;;;;;;9.51;53.08;99272.25;67565;1282;1016759;-72
2024/01/27 04:33:28;;;;;;;;;;;;;;;9.47;52.97;99276.98;67557;1282;1016461;-72
2024/01/27 04:36:30;;;;;;;;;;;;;;;9.50;53.05;99274.59;67538;1282;1018890;-72
2024/01/27 04:39:33;;;;;;;;;;;;;;;9.57;52.37;99265.85;67555;1282;1016433;-73
2024/01/27 04:42:35;;;;;;;;;;;;;;;9.50;52.21;99268.98;67541;1282;1016405;-73
2024/01/27 04:45:38;;;;;;;;;;;;;;;9.54;51.66;99285.38;67583;1282;1016526;-72
2024/01/27 04:48:40;;;;;;;;;;;;;;;9.65;51.92;99269.46;67568;1282;1016052;-73
2024/01/27 04:51:43;;;;;;;;;;;;;;;9.68;50.60;99288.35;67552;1282;1018535;-72
2024/01/27 04:54:45;;;;;;;;;;;;;;;9.75;50.14;99292.35;67519;1282;1017622;-72
2024/01/27 04:57:47;;;;;;;;;;;;;;;9.86;50.73;99277.86;67565;1282;1016478;-72
2024/01/27 05:00:50;;;;;;;;;;;;;;;9.89;50.42;99279.60;67590;1282;1016472;-72
2024/01/27 05:03:53;;;;;;;;;;;;;;;9.74;50.73;99287.52;67514;1282;1016244;-72
2024/01/27 05:06:55;;;;;;;;;;;;;;;9.79;50.49;99284.43;67599;1282;1016257;-72
2024/01/27 05:09:58;;;;;;;;;;;;;;;9.93;50.04;99284.14;67567;1282;1016412;-70
2024/01/27 05:13:00;;;;;;;;;;;;;;;9.79;50.00;99288.14;67534;1282;1016506;-72
2024/01/27 05:16:03;;;;;;;;;;;;;;;9.82;49.98;99284.66;67541;1282;1016344;-72
2024/01/27 05:19:05;;;;;;;;;;;;;;;10.03;49.59;99286.76;67564;1282;1016458;-72
2024/01/27 05:22:08;;;;;;;;;;;;;;;9.94;49.50;99299.25;67574;1282;1016471;-72
2024/01/27 05:25:11;;;;;;;;;;;;;;;9.92;49.39;99309.32;67536;1282;1016096;-70
2024/01/27 05:28:13;;;;;;;;;;;;;;;9.92;50.26;99297.98;67522;1282;1016491;-72
2024/01/27 05:31:16;;;;;;;;;;;;;;;9.77;50.21;99317.92;67554;1282;1016131;-71
2024/01/27 05:34:19;;;;;;;;;;;;;;;9.90;50.38;99307.83;67529;1282;1016752;-72
2024/01/27 05:37:21;;;;;;;;;;;;;;;10.21;49.21;99312.38;67528;1282;1016115;-72
2024/01/27 05:40:24;;;;;;;;;;;;;;;10.30;49.13;99310.20;67569;1282;1016454;-72
2024/01/27 05:43:26;;;;;;;;;;;;;;;9.83;50.34;99313.95;67571;1282;1015988;-73
2024/01/27 05:46:29;;;;;;;;;;;;;;;9.84;50.55;99309.88;67581;1282;1016507;-71
2024/01/27 05:49:31;;;;;;;;;;;;;;;9.88;50.85;99292.20;67537;1282;1016987;-71
2024/01/27 05:52:33;;;;;;;;;;;;;;;9.81;50.64;99308.65;67528;1282;1016474;-71
2024/01/27 05:55:36;;;;;;;;;;;;;;;9.88;50.40;99303.77;67575;1282;1015976;-73
2024/01/27 05:58:38;;;;;;;;;;;;;;;9.81;51.05;99307.08;67582;1282;1016312;-72
2024/01/27 06:01:43;;;;;;;;;;;;;;;9.83;51.21;99309.06;67533;1282;1016279;-72
2024/01/27 06:04:45;;;;;;;;;;;;;;;9.91;52.25;99300.64;67517;1282;1018639;-72
2024/01/27 06:07:49;;;;;;;;;;;;;;;9.96;52.57;99301.98;67579;1282;1016492;-72
2024/01/27 06:10:51;;;;;;;;;;;;;;;9.88;52.28;99311.96;67535;1282;1016462;-72
2024/01/27 06:13:54;;;;;;;;;;;;;;;9.85;52.72;99304.59;67567;1282;1016226;-72
2024/01/27 06:16:56;;;;;;;;;;;;;;;9.51;53.24;99307.34;67587;1282;1016589;-72
2024/01/27 06:19:59;;;;;;;;;;;;;;;9.44;53.90;99299.44;67590;1282;1017815;-72
2024/01/27 06:23:01;;;;;;;;;;;;;;;9.34;54.04;99308.65;67517;1282;1016897;-72
2024/01/27 06:26:04;;;;;;;;;;;;;;;9.47;52.64;99305.95;67540;1282;1016573;-72
2024/01/27 06:29:06;;;;;;;;;;;;;;;9.52;53.03;99299.59;67582;1282;1018238;-71
2024/01/27 06:32:09;;;;;;;;;;;;;;;9.65;52.36;99304.58;67585;1282;1016222;-72
2024/01/27 06:35:11;;;;;;;;;;;;;;;9.56;52.35;99306.20;67548;1282;1016811;-73
2024/01/27 06:38:14;;;;;;;;;;;;;;;9.54;52.49;99310.16;67533;1282;1016524;-72
2024/01/27 06:41:16;;;;;;;;;;;;;;;9.64;51.62;99317.71;67571;1282;1016156;-72
2024/01/27 06:44:19;;;;;;;;;;;;;;;9.74;51.78;99317.02;67541;1282;1016443;-73
2024/01/27 06:47:21;;;;;;;;;;;;;;;9.66;51.92;99307.29;67562;1282;1016446;-72
2024/01/27 06:50:24;;;;;;;;;;;;;;;9.66;51.99;99316.02;67507;1282;1016573;-72
2024/01/27 06:53:26;;;;;;;;;;;;;;;9.59;51.48;99319.16;67543;1282;1016487;-72
2024/01/27 06:56:29;;;;;;;;;;;;;;;9.56;52.01;99330.29;67552;1282;1016120;-71
2024/01/27 06:59:31;;;;;;;;;;;;;;;9.49;52.72;99332.38;67530;1282;1016393;-72
2024/01/27 07:02:34;;;;;;;;;;;;;;;9.36;53.62;99333.89;67533;1282;1016390;-72
2024/01/27 07:05:40;;;;;;;;;;;;;;;9.36;54.50;99348.73;67587;1282;1016401;-72
2024/01/27 07:08:42;;;;;;;;;;;;;;;9.09;57.16;99351.57;67561;1282;1016402;-72
2024/01/27 07:11:45;;;;;;;;;;;;;;;9.06;58.16;99343.30;67578;1282;1016490;-72
2024/01/27 07:14:47;;;;;;;;;;;;;;;9.02;59.09;99340.55;67576;1282;1016427;-72
2024/01/27 07:17:50;;;;;;;;;;;;;;;8.94;60.10;99343.18;67533;1282;1016200;-72
2024/01/27 07:20:52;;;;;;;;;;;;;;;8.88;60.93;99341.72;67530;1282;1016491;-72
2024/01/27 07:23:54;;;;;;;;;;;;;;;8.69;62.08;99332.45;67593;1282;1016803;-72
2024/01/27 07:26:58;;;;;;;;;;;;;;;8.64;63.19;99338.09;67578;1282;1016583;-72
2024/01/27 07:30:00;;;;;;;;;;;;;;;8.64;63.48;99338.43;67537;1282;1016372;-72
2024/01/27 07:33:03;;;;;;;;;;;;;;;8.60;63.96;99343.67;67554;1282;1016427;-72
2024/01/27 07:36:05;;;;;;;;;;;;;;;8.67;63.47;99335.98;67517;1282;1016476;-72
2024/01/27 07:39:08;;;;;;;;;;;;;;;8.70;62.70;99338.70;67500;1282;1016732;-69
2024/01/27 07:42:11;;;;;;;;;;;;;;;8.76;62.66;99345.04;67608;1282;1016408;-72
2024/01/27 07:45:13;;;;;;;;;;;;;;;8.78;62.44;99340.08;67546;1282;1016393;-71
2024/01/27 07:48:16;;;;;;;;;;;;;;;8.75;62.00;99343.33;67527;1282;1016427;-71
2024/01/27 07:51:18;;;;;;;;;;;;;;;8.71;61.72;99341.41;67540;1282;1016411;-70
2024/01/27 07:54:21;;;;;;;;;;;;;;;8.77;62.17;99340.83;67565;1282;1016488;-72
2024/01/27 07:57:23;;;;;;;;;;;;;;;8.74;61.54;99359.75;67553;1282;1017367;-69
2024/01/27 08:00:26;;;;;;;;;;;;;;;8.63;62.33;99370.88;67556;1282;1017142;-72
2024/01/27 08:03:28;;;;;;;;;;;;;;;8.40;63.56;99382.15;67517;1282;1016678;-72
2024/01/27 08:06:31;;;;;;;;;;;;;;;8.28;65.23;99376.00;67514;1282;1016523;-72
2024/01/27 08:09:33;;;;;;;;;;;;;;;8.22;65.67;99398.07;67572;1282;1016329;-72
2024/01/27 08:12:36;;;;;;;;;;;;;;;8.18;67.13;99389.52;67558;1282;1016904;-66
2024/01/27 08:15:38;;;;;;;;;;;;;;;8.17;68.17;99394.45;67525;1282;1016454;-71
2024/01/27 08:18:42;;;;;;;;;;;;;;;8.08;69.05;99389.60;67566;1282;1016311;-71
2024/01/27 08:21:44;;;;;;;;;;;;;;;8.20;68.73;99376.34;67520;1281;1016403;-72
2024/01/27 08:24:47;;;;;;;;;;;;;;;8.19;69.55;99378.33;67537;1282;1016417;-72
2024/01/27 08:27:49;;;;;;;;;;;;;;;8.24;69.86;99379.70;67577;1282;1016309;-72
2024/01/27 08:30:52;;;;;;;;;;;;;;;8.27;70.08;99380.77;67497;1282;1016924;-71
2024/01/27 08:33:54;;;;;;;;;;;;;;;8.24;70.47;99388.22;67511;1282;1016457;-71
2024/01/27 08:36:59;;;;;;;;;;;;;;;8.29;70.14;99384.86;67551;1282;1016467;-73
2024/01/27 08:40:01;;;;;;;;;;;;;;;8.21;70.00;99380.50;67552;1282;1016215;-68
2024/01/27 08:43:04;;;;;;;;;;;;;;;8.22;69.50;99382.38;67527;1282;1016485;-72
2024/01/27 08:46:11;;;;;;;;;;;;;;;8.08;69.98;99383.15;67553;1282;1016481;-71
2024/01/27 08:49:13;;;;;;;;;;;;;;;8.00;70.61;99383.64;67563;1282;1016452;-72
2024/01/27 08:52:16;;;;;;;;;;;;;;;7.92;71.15;99390.75;67546;1282;1016046;-73
2024/01/27 08:55:19;;;;;;;;;;;;;;;7.88;71.47;99383.46;67505;1282;1016370;-70
2024/01/27 08:58:22;;;;;;;;;;;;;;;7.93;71.61;99387.23;67503;1282;1016333;-72
2024/01/27 09:01:24;;;;;;;;;;;;;;;8.05;71.50;99384.48;67515;1282;1016285;-72
2024/01/27 09:04:27;;;;;;;;;;;;;;;8.08;70.46;99385.39;67548;1282;1019346;-72
2024/01/27 09:07:29;;;;;;;;;;;;;;;8.07;71.14;99384.07;67555;1282;1016306;-72
2024/01/27 09:10:32;;;;;;;;;;;;;;;8.02;70.92;99388.97;67496;1282;1016453;-70
2024/01/27 09:13:34;;;;;;;;;;;;;;;7.98;71.56;99389.11;67513;1282;1016452;-72
2024/01/27 09:16:37;;;;;;;;;;;;;;;8.07;71.41;99385.24;67559;1282;1016895;-72
2024/01/27 09:19:39;;;;;;;;;;;;;;;8.02;71.95;99393.66;67558;1282;1016347;-72
2024/01/27 09:22:44;;;;;;;;;;;;;;;8.08;71.77;99394.98;67550;1282;1016976;-72
2024/01/27 09:25:47;;;;;;;;;;;;;;;8.15;71.69;99393.10;67530;1282;1016216;-72
2024/01/27 09:28:54;;;;;;;;;;;;;;;8.23;71.23;99388.75;67560;1282;1018238;-71
2024/01/27 09:31:56;;;;;;;;;;;;;;;8.40;70.77;99390.14;67522;1282;1016418;-72
2024/01/27 09:34:58;;;;;;;;;;;;;;;8.45;70.97;99391.36;67504;1282;1018867;-72
2024/01/27 09:38:01;;;;;;;;;;;;;;;8.48;70.63;99388.62;67557;1282;1018326;-72
2024/01/27 09:41:03;;;;;;;;;;;;;;;8.47;71.07;99388.83;67551;1282;1016472;-70
2024/01/27 09:44:06;;;;;;;;;;;;;;;8.40;71.00;99384.23;67527;1282;1016396;-72
2024/01/27 09:47:08;;;;;;;;;;;;;;;8.29;71.31;99393.42;67499;1282;1016966;-72
2024/01/27 09:50:11;;;;;;;;;;;;;;;8.24;71.58;99400.23;67535;1282;1016285;-71
2024/01/27 09:53:13;;;;;;;;;;;;;;;8.39;71.14;99403.61;67554;1282;1016466;-72
2024/01/27 09:56:18;;;;;;;;;;;;;;;8.35;70.75;99404.47;67550;1282;1016464;-72
2024/01/27 09:59:20;;;;;;;;;;;;;;;8.26;71.34;99406.60;67513;1282;1016455;-71
2024/01/27 10:02:23;;;;;;;;;;;;;;;8.34;71.38;99406.45;67542;1282;1016473;-67
2024/01/27 10:05:26;;;;;;;;;;;;;;;8.16;71.85;99420.42;67574;1282;1016573;-72
2024/01/27 10:08:29;;;;;;;;;;;;;;;8.01;72.54;99409.20;67504;1282;1016698;-73
2024/01/27 10:11:32;;;;;;;;;;;;;;;7.96;72.71;99406.64;67544;1282;1016440;-72
2024/01/27 10:14:35;;;;;;;;;;;;;;;7.90;73.64;99410.53;67478;1282;1016446;-72
2024/01/27 10:17:37;;;;;;;;;;;;;;;7.96;73.41;99403.14;67535;1282;1017557;-72
2024/01/27 10:20:40;;;;;;;;;;;;;;;8.01;73.57;99409.05;67543;1282;1016738;-71
2024/01/27 10:23:42;;;;;;;;;;;;;;;7.98;73.40;99407.24;67536;1282;1015796;-72
2024/01/27 10:26:45;;;;;;;;;;;;;;;7.95;73.89;99417.27;67511;1282;1017096;-71
2024/01/27 10:29:47;;;;;;;;;;;;;;;7.90;73.86;99418.86;67560;1282;1018888;-71
2024/01/27 10:32:50;;;;;;;;;;;;;;;7.88;74.78;99413.74;67552;1282;1016423;-72
2024/01/27 10:35:52;;;;;;;;;;;;;;;7.89;74.85;99418.73;67535;1282;1016405;-72
2024/01/27 10:38:55;;;;;;;;;;;;;;;7.89;74.96;99423.27;67509;1282;1016274;-71
2024/01/27 10:41:57;;;;;;;;;;;;;;;8.01;74.02;99431.33;67530;1282;1016523;-72
2024/01/27 10:45:00;;;;;;;;;;;;;;;8.00;74.45;99430.66;67548;1282;1015749;-71
2024/01/27 10:48:02;;;;;;;;;;;;;;;8.04;74.13;99438.52;67527;1282;1015787;-72
2024/01/27 10:51:05;;;;;;;;;;;;;;;7.91;75.54;99432.41;67515;1282;1016489;-72
2024/01/27 10:54:07;;;;;;;;;;;;;;;7.97;75.24;99432.02;67586;1282;1016105;-72
2024/01/27 10:57:10;;;;;;;;;;;;;;;8.10;74.64;99435.83;67551;1282;1016476;-72
2024/01/27 11:00:12;;;;;;;;;;;;;;;8.21;73.68;99435.92;67524;1282;1016305;-73
2024/01/27 11:03:15;;;;;;;;;;;;;;;8.27;73.19;99433.90;67509;1282;1016055;-72
2024/01/27 11:06:18;;;;;;;;;;;;;;;8.15;73.61;99432.85;67556;1282;1018616;-72
2024/01/27 11:09:20;;;;;;;;;;;;;;;8.05;74.51;99446.13;67564;1282;1017546;-72
2024/01/27 11:12:23;;;;;;;;;;;;;;;8.13;74.20;99436.42;67500;1282;1016461;-72
2024/01/27 11:15:25;;;;;;;;;;;;;;;8.16;73.93;99441.52;67504;1282;1016442;-72
2024/01/27 11:18:28;;;;;;;;;;;;;;;8.23;74.24;99441.59;67521;1282;1016360;-72
2024/01/27 11:21:30;;;;;;;;;;;;;;;8.29;74.43;99454.56;67551;1282;1016421;-72
2024/01/27 11:24:33;;;;;;;;;;;;;;;8.13;73.83;99453.48;67521;1282;1016529;-72
2024/01/27 11:27:36;;;;;;;;;;;;;;;8.00;74.21;99452.10;67503;1282;1018690;-72
2024/01/27 11:30:39;;;;;;;;;;;;;;;7.94;74.57;99454.95;67575;1282;1016477;-72
2024/01/27 11:33:43;;;;;;;;;;;;;;;7.99;74.12;99459.78;67531;1282;1016418;-73
2024/01/27 11:36:45;;;;;;;;;;;;;;;7.95;74.56;99463.27;67522;1282;1016410;-69
2024/01/27 11:39:49;;;;;;;;;;;;;;;7.94;74.93;99466.96;67515;1282;1016464;-72
2024/01/27 11:42:52;;;;;;;;;;;;;;;8.03;74.52;99463.80;67512;1282;1018171;-72
2024/01/27 11:45:54;;;;;;;;;;;;;;;8.09;74.04;99468.46;67545;1282;1016419;-72
2024/01/27 11:48:57;;;;;;;;;;;;;;;8.12;74.26;99469.91;67558;1282;1016390;-73
2024/01/27 11:51:59;;;;;;;;;;;;;;;8.17;73.59;99475.09;67508;1282;1016411;-71
2024/01/27 11:55:02;;;;;;;;;;;;;;;8.07;74.07;99480.38;67478;1282;1016381;-72
2024/01/27 11:58:04;;;;;;;;;;;;;;;8.00;74.48;99490.92;67523;1282;1016197;-73
2024/01/27 12:01:09;;;;;;;;;;;;;;;8.11;74.05;99489.61;67524;1282;1015987;-73
2024/01/27 12:04:13;;;;;;;;;;;;;;;8.18;73.71;99497.85;67515;1282;1017133;-72
2024/01/27 12:07:18;;;;;;;;;;;;;;;8.07;74.30;99508.40;67568;1282;1017207;-73
2024/01/27 12:10:21;;;;;;;;;;;;;;;8.01;74.57;99506.54;67531;1282;1016485;-72
2024/01/27 12:13:23;;;;;;;;;;;;;;;7.89;75.50;99509.47;67510;1282;1018607;-73
2024/01/27 12:16:26;;;;;;;;;;;;;;;7.99;74.69;99517.46;67510;1282;1016423;-73
2024/01/27 12:19:28;;;;;;;;;;;;;;;7.87;75.18;99521.05;67539;1282;1015940;-72
2024/01/27 12:22:31;;;;;;;;;;;;;;;7.65;76.57;99526.23;67543;1282;1016832;-72
2024/01/27 12:25:33;;;;;;;;;;;;;;;7.81;75.58;99524.25;67539;1282;1016504;-73
2024/01/27 12:28:37;;;;;;;;;;;;;;;7.80;75.64;99540.27;67521;1282;1018670;-73
2024/01/27 12:31:40;;;;;;;;;;;;;;;7.88;75.69;99539.13;67522;1282;1016274;-70
2024/01/27 12:34:42;;;;;;;;;;;;;;;8.06;74.62;99533.73;67533;1282;1016461;-73
2024/01/27 12:37:45;;;;;;;;;;;;;;;8.00;74.60;99542.66;67558;1282;1016445;-73
2024/01/27 12:40:47;;;;;;;;;;;;;;;8.01;74.79;99545.75;67562;1282;1016356;-73
2024/01/27 12:43:50;;;;;;;;;;;;;;;8.12;74.01;99548.64;67533;1282;1016325;-70
2024/01/27 12:46:57;;;;;;;;;;;;;;;8.22;73.46;99552.08;67492;1282;1018728;-73
2024/01/27 12:49:59;;;;;;;;;;;;;;;8.24;73.59;99554.44;67578;1282;1016536;-71
2024/01/27 12:53:02;;;;;;;;;;;;;;;8.15;74.34;99561.91;67598;1282;1016257;-73
2024/01/27 12:56:04;;;;;;;;;;;;;;;8.20;74.28;99565.06;67546;1282;1016519;-73
2024/01/27 12:59:15;;;;;;;;;;;;;;;8.21;74.71;99568.15;67545;1282;1016460;-73
2024/01/27 13:02:18;;;;;;;;;;;;;;;8.33;74.16;99569.75;67567;1282;1016541;-73
2024/01/27 13:05:20;;;;;;;;;;;;;;;8.40;74.42;99576.98;67542;1282;1016478;-73
2024/01/27 13:08:23;;;;;;;;;;;;;;;8.37;75.03;99583.39;67539;1282;1016296;-73
2024/01/27 13:11:25;;;;;;;;;;;;;;;8.39;74.92;99579.98;67574;1282;1016327;-73
2024/01/27 13:14:28;;;;;;;;;;;;;;;8.41;75.38;99600.50;67570;1282;1016412;-73
2024/01/27 13:17:30;;;;;;;;;;;;;;;8.44;75.93;99603.52;67517;1282;1016578;-71
2024/01/27 13:20:33;;;;;;;;;;;;;;;8.52;75.22;99604.94;67511;1280;1016417;-73
2024/01/27 13:23:35;;;;;;;;;;;;;;;8.60;75.00;99611.97;67560;1282;1016222;-73
2024/01/27 13:26:38;;;;;;;;;;;;;;;8.80;73.88;99612.55;67585;1282;1016560;-72
2024/01/27 13:29:40;;;;;;;;;;;;;;;8.70;74.07;99622.70;67530;1282;1016513;-73
2024/01/27 13:32:43;;;;;;;;;;;;;;;8.81;74.18;99628.18;67530;1282;1016924;-72
2024/01/27 13:35:46;;;;;;;;;;;;;;;8.93;73.36;99627.17;67557;1282;1016872;-70
2024/01/27 13:38:49;;;;;;;;;;;;;;;8.68;75.78;99633.78;67521;1282;1016560;-73
2024/01/27 13:41:51;;;;;;;;;;;;;;;8.64;76.40;99644.23;67566;1282;1016919;-72
2024/01/27 13:44:54;;;;;;;;;;;;;;;8.54;77.11;99644.58;67569;1282;1016224;-73
2024/01/27 13:47:56;;;;;;;;;;;;;;;8.31;79.17;99657.85;67531;1282;1016502;-72
2024/01/27 13:50:59;;;;;;;;;;;;;;;8.21;80.35;99668.34;67510;1282;1017095;-72
2024/01/27 13:54:02;;;;;;;;;;;;;;;8.59;77.61;99661.31;67508;1282;1016146;-67
2024/01/27 13:57:05;;;;;;;;;;;;;;;8.61;77.02;99673.98;67522;1282;1016425;-71
2024/01/27 14:00:08;;;;;;;;;;;;;;;8.67;76.40;99675.14;67564;1282;1016511;-71
2024/01/27 14:03:11;;;;;;;;;;;;;;;8.70;76.77;99676.25;67530;1282;1016340;-71
2024/01/27 14:06:14;;;;;;;;;;;;;;;8.75;75.50;99689.11;67564;1282;1016130;-73
2024/01/27 14:09:17;;;;;;;;;;;;;;;8.85;75.18;99689.95;67579;1282;1016780;-72
2024/01/27 14:12:20;;;;;;;;;;;;;;;8.78;75.44;99697.37;67588;1282;1016379;-72
2024/01/27 14:15:22;;;;;;;;;;;;;;;8.36;78.02;99705.41;67590;1282;1016492;-72
2024/01/27 14:18:25;;;;;;;;;;;;;;;8.40;78.73;99709.78;67558;1282;1016655;-72
2024/01/27 14:21:28;;;;;;;;;;;;;;;8.55;77.17;99714.10;67515;1282;1017153;-73
2024/01/27 14:24:32;;;;;;;;;;;;;;;8.72;76.08;99722.18;67551;1282;1016402;-71
2024/01/27 14:27:35;;;;;;;;;;;;;;;8.64;76.53;99732.08;67543;1282;1016338;-72
2024/01/27 14:30:39;;;;;;;;;;;;;;;8.59;77.15;99741.52;67514;1282;1016131;-73
2024/01/27 14:33:42;;;;;;;;;;;;;;;8.64;77.16;99748.30;67516;1282;1018472;-73
2024/01/27 14:36:44;;;;;;;;;;;;;;;8.66;76.97;99748.77;67537;1282;1016539;-72
2024/01/27 14:39:48;;;;;;;;;;;;;;;8.60;77.21;99757.16;67581;1282;1016501;-71
2024/01/27 14:42:50;;;;;;;;;;;;;;;8.57;77.39;99765.83;67588;1282;1016415;-73
2024/01/27 14:45:55;;;;;;;;;;;;;;;8.47;78.18;99777.85;67562;1282;1015796;-73
2024/01/27 14:48:57;;;;;;;;;;;;;;;8.50;77.74;99778.62;67542;1282;1016512;-72
2024/01/27 14:52:00;;;;;;;;;;;;;;;8.47;78.41;99788.14;67537;1282;1016105;-72
2024/01/27 14:55:03;;;;;;;;;;;;;;;8.44;78.41;99786.84;67568;1282;1016507;-73
2024/01/27 14:58:05;;;;;;;;;;;;;;;8.52;78.03;99788.86;67531;1282;1016514;-73
2024/01/27 15:01:08;;;;;;;;;;;;;;;8.52;78.09;99795.48;67530;1282;1016313;-73
2024/01/27 15:04:10;;;;;;;;;;;;;;;8.44;78.33;99796.95;67575;1282;1016455;-72
2024/01/27 15:07:15;;;;;;;;;;;;;;;8.41;78.42;99800.06;67556;1282;1016399;-72
2024/01/27 15:10:18;;;;;;;;;;;;;;;8.34;78.63;99803.58;67511;1282;1018854;-73
2024/01/27 15:13:23;;;;;;;;;;;;;;;8.25;79.15;99803.73;67568;1282;1016458;-73
2024/01/27 15:16:26;;;;;;;;;;;;;;;8.35;78.59;99812.08;67562;1282;1017789;-73
2024/01/27 15:19:28;;;;;;;;;;;;;;;8.37;78.51;99820.40;67517;1282;1016384;-70
2024/01/27 15:22:31;;;;;;;;;;;;;;;8.43;78.30;99821.74;67527;1282;1016856;-73
2024/01/27 15:25:34;;;;;;;;;;;;;;;8.37;78.51;99832.40;67524;1282;1016812;-72
2024/01/27 15:28:36;;;;;;;;;;;;;;;8.38;78.46;99837.62;67557;1282;1016209;-73
2024/01/27 15:31:39;;;;;;;;;;;;;;;8.42;78.24;99837.46;67561;1282;1016975;-73
2024/01/27 15:34:41;;;;;;;;;;;;;;;8.41;78.57;99847.46;67533;1282;1016363;-73
2024/01/27 15:37:49;;;;;;;;;;;;;;;8.40;78.87;99848.89;67000;1282;6367745;-72